Selinsgrove, PA (17870)

8:46 PM EST on February 05, 2016 (GMT -0500)
Cardiff Drive | | Change Station
CLOSE
Current Station
Personal Weather Station
Location: Kreamer, PA
Elevation: 531 ft
Nearby Weather Stations

Elev 531 ft 40.80 °N, 76.96 °W | Updated 9 minutes ago

Clear
Clear
27.9 °F
Feels Like 28 °F
N
1.7
Wind Variable Wind from West

Today
High -- | Low -- °F
--% Chance of Precip.
Yesterday
High -- | Low -- °F
Precip. -- in
Pressure 30.37 in
Visibility 10.0 miles
Clouds Clear
Windchill 28 °F
Dew Point 21 °F
Humidity 76%
Rainfall 0.00 in
Snow Depth Not available.
7:14 AM 5:29 PM
Waning Crescent, 8% visible
METAR KSEG 060053Z AUTO 30004KT 10SM CLR M01/M07 A3035 RMK AO2 SLP282 T10111072
Pressure 30.37 in
Visibility 10.0 miles
Clouds Clear
Windchill 28 °F
Dew Point 21 °F
Humidity 76%
Rainfall 0.00 in
Snow Depth Not available.
7:14 AM 5:29 PM
Waning Crescent, 8% visible
METAR KSEG 060053Z AUTO 30004KT 10SM CLR M01/M07 A3035 RMK AO2 SLP282 T10111072

10-Day Weather Forecast

Almanac

Astronomy

Feb. 05, 2016 Rise Set
Actual Time
Civil Twilight
Nautical Twilight
Astronomical Twilight
Moon
Length of Visible Light
Length of Day
Tomorrow will be .
, % of the Moon is Illuminated

Today's Extremes

State Highs State Lows

Community

WunderPhotos

Upload Photos

1,890,906 photos uploaded!

WunderBlog® & News

Nearby

Air Quality

  Air Quality AQ Index Pollutant
Not available.

Snow Depth

Station Depth Elevation

Earthquake Activity

City Distance Mag. Time & Date
Minimum magnitude displayed is 2.5.

Coastal Water Temperatures

Place Temperature

Stations

Nearby Weather Stations

Station Location Temp. Windchill Dew Point Humidity Wind Precip. Elev Updated Type
                   

Watches & Warnings

There are currently no watches in effect.